sensor_id;sensor_type;location;lat;lon;timestamp;P1;durP1;ratioP1;P2;durP2;ratioP2
55254;SDS011;41118;44.634;11.182;2024-01-30T00:02:10;17.05;;;7.03;;
55254;SDS011;41118;44.634;11.182;2024-01-30T00:04:36;20.88;;;8.25;;
55254;SDS011;41118;44.634;11.182;2024-01-30T00:07:03;22.80;;;8.85;;
55254;SDS011;41118;44.634;11.182;2024-01-30T00:09:29;15.15;;;6.22;;
55254;SDS011;41118;44.634;11.182;2024-01-30T00:11:55;20.98;;;8.60;;
55254;SDS011;41118;44.634;11.182;2024-01-30T00:14:22;13.60;;;5.85;;
55254;SDS011;41118;44.634;11.182;2024-01-30T00:16:48;17.88;;;7.47;;
55254;SDS011;41118;44.634;11.182;2024-01-30T00:19:15;13.55;;;6.97;;
55254;SDS011;41118;44.634;11.182;2024-01-30T00:21:41;17.15;;;7.60;;
55254;SDS011;41118;44.634;11.182;2024-01-30T00:24:07;15.40;;;6.45;;
55254;SDS011;41118;44.634;11.182;2024-01-30T00:26:33;15.55;;;6.13;;
55254;SDS011;41118;44.634;11.182;2024-01-30T00:28:59;18.13;;;7.38;;
55254;SDS011;41118;44.634;11.182;2024-01-30T00:31:25;12.88;;;6.10;;
55254;SDS011;41118;44.634;11.182;2024-01-30T00:33:51;17.38;;;6.85;;
55254;SDS011;41118;44.634;11.182;2024-01-30T00:36:17;17.98;;;6.80;;
55254;SDS011;41118;44.634;11.182;2024-01-30T00:38:43;17.35;;;6.70;;
55254;SDS011;41118;44.634;11.182;2024-01-30T00:41:09;16.95;;;7.13;;
55254;SDS011;41118;44.634;11.182;2024-01-30T00:43:36;15.15;;;6.50;;
55254;SDS011;41118;44.634;11.182;2024-01-30T00:46:02;16.40;;;7.65;;
55254;SDS011;41118;44.634;11.182;2024-01-30T00:48:28;14.88;;;6.15;;
55254;SDS011;41118;44.634;11.182;2024-01-30T00:50:54;14.20;;;5.72;;
55254;SDS011;41118;44.634;11.182;2024-01-30T00:53:21;16.52;;;6.65;;
55254;SDS011;41118;44.634;11.182;2024-01-30T00:55:47;17.33;;;8.50;;
55254;SDS011;41118;44.634;11.182;2024-01-30T00:58:13;15.50;;;6.18;;
55254;SDS011;41118;44.634;11.182;2024-01-30T01:00:39;17.45;;;6.22;;
55254;SDS011;41118;44.634;11.182;2024-01-30T01:03:05;18.25;;;7.93;;
55254;SDS011;41118;44.634;11.182;2024-01-30T01:05:31;16.05;;;6.82;;
55254;SDS011;41118;44.634;11.182;2024-01-30T01:07:58;13.07;;;5.75;;
55254;SDS011;41118;44.634;11.182;2024-01-30T01:10:24;18.92;;;7.05;;
55254;SDS011;41118;44.634;11.182;2024-01-30T01:12:50;13.55;;;5.30;;
55254;SDS011;41118;44.634;11.182;2024-01-30T01:15:16;16.52;;;8.32;;
55254;SDS011;41118;44.634;11.182;2024-01-30T01:17:43;23.40;;;7.65;;
55254;SDS011;41118;44.634;11.182;2024-01-30T01:20:09;18.35;;;7.10;;
55254;SDS011;41118;44.634;11.182;2024-01-30T01:22:35;14.63;;;7.45;;
55254;SDS011;41118;44.634;11.182;2024-01-30T01:25:03;16.20;;;6.47;;
55254;SDS011;41118;44.634;11.182;2024-01-30T01:27:32;21.67;;;8.63;;
55254;SDS011;41118;44.634;11.182;2024-01-30T01:29:59;16.13;;;5.30;;
55254;SDS011;41118;44.634;11.182;2024-01-30T01:32:25;20.20;;;8.40;;
55254;SDS011;41118;44.634;11.182;2024-01-30T01:34:51;15.45;;;6.32;;
55254;SDS011;41118;44.634;11.182;2024-01-30T01:37:17;19.90;;;8.30;;
55254;SDS011;41118;44.634;11.182;2024-01-30T01:39:44;16.70;;;7.35;;
55254;SDS011;41118;44.634;11.182;2024-01-30T01:42:10;16.58;;;8.68;;
55254;SDS011;41118;44.634;11.182;2024-01-30T01:44:36;22.15;;;7.93;;
55254;SDS011;41118;44.634;11.182;2024-01-30T01:47:03;18.95;;;6.90;;
55254;SDS011;41118;44.634;11.182;2024-01-30T01:49:29;21.65;;;8.77;;
55254;SDS011;41118;44.634;11.182;2024-01-30T01:51:55;18.08;;;7.82;;
55254;SDS011;41118;44.634;11.182;2024-01-30T01:54:25;17.75;;;7.38;;
55254;SDS011;41118;44.634;11.182;2024-01-30T01:56:51;17.65;;;7.45;;
55254;SDS011;41118;44.634;11.182;2024-01-30T01:59:18;20.15;;;8.88;;
55254;SDS011;41118;44.634;11.182;2024-01-30T02:01:46;13.30;;;5.18;;
55254;SDS011;41118;44.634;11.182;2024-01-30T02:04:14;12.60;;;6.07;;
55254;SDS011;41118;44.634;11.182;2024-01-30T02:06:40;15.13;;;6.03;;
55254;SDS011;41118;44.634;11.182;2024-01-30T02:09:06;12.52;;;4.70;;
55254;SDS011;41118;44.634;11.182;2024-01-30T02:11:34;18.05;;;8.55;;
55254;SDS011;41118;44.634;11.182;2024-01-30T02:14:04;18.98;;;7.13;;
55254;SDS011;41118;44.634;11.182;2024-01-30T02:16:30;17.00;;;6.95;;
55254;SDS011;41118;44.634;11.182;2024-01-30T02:18:56;18.35;;;7.18;;
55254;SDS011;41118;44.634;11.182;2024-01-30T02:21:23;17.10;;;7.18;;
55254;SDS011;41118;44.634;11.182;2024-01-30T02:23:49;15.38;;;6.60;;
55254;SDS011;41118;44.634;11.182;2024-01-30T02:26:16;20.55;;;8.20;;
55254;SDS011;41118;44.634;11.182;2024-01-30T02:28:42;18.80;;;7.88;;
55254;SDS011;41118;44.634;11.182;2024-01-30T02:31:08;22.33;;;8.45;;
55254;SDS011;41118;44.634;11.182;2024-01-30T02:33:34;17.77;;;6.68;;
55254;SDS011;41118;44.634;11.182;2024-01-30T02:36:01;20.75;;;7.03;;
55254;SDS011;41118;44.634;11.182;2024-01-30T02:38:27;19.45;;;8.50;;
55254;SDS011;41118;44.634;11.182;2024-01-30T02:40:54;21.63;;;9.98;;
55254;SDS011;41118;44.634;11.182;2024-01-30T02:43:21;23.42;;;7.80;;
55254;SDS011;41118;44.634;11.182;2024-01-30T02:45:47;18.52;;;8.60;;
55254;SDS011;41118;44.634;11.182;2024-01-30T02:48:13;22.40;;;8.00;;
55254;SDS011;41118;44.634;11.182;2024-01-30T02:50:39;19.50;;;10.07;;
55254;SDS011;41118;44.634;11.182;2024-01-30T02:53:05;17.95;;;8.73;;
55254;SDS011;41118;44.634;11.182;2024-01-30T02:55:32;14.40;;;7.45;;
55254;SDS011;41118;44.634;11.182;2024-01-30T02:57:59;16.40;;;8.80;;
55254;SDS011;41118;44.634;11.182;2024-01-30T03:00:25;24.00;;;10.50;;
55254;SDS011;41118;44.634;11.182;2024-01-30T03:02:51;16.98;;;6.63;;
55254;SDS011;41118;44.634;11.182;2024-01-30T03:05:17;17.70;;;6.93;;
55254;SDS011;41118;44.634;11.182;2024-01-30T03:07:43;22.40;;;8.48;;
55254;SDS011;41118;44.634;11.182;2024-01-30T03:10:09;24.15;;;7.38;;
55254;SDS011;41118;44.634;11.182;2024-01-30T03:12:35;14.45;;;6.88;;
55254;SDS011;41118;44.634;11.182;2024-01-30T03:15:01;19.75;;;7.30;;
55254;SDS011;41118;44.634;11.182;2024-01-30T03:17:27;18.92;;;8.25;;
55254;SDS011;41118;44.634;11.182;2024-01-30T03:19:53;17.92;;;6.35;;
55254;SDS011;41118;44.634;11.182;2024-01-30T03:22:20;26.08;;;8.95;;
55254;SDS011;41118;44.634;11.182;2024-01-30T03:24:46;15.07;;;6.53;;
55254;SDS011;41118;44.634;11.182;2024-01-30T03:27:12;15.15;;;6.95;;
55254;SDS011;41118;44.634;11.182;2024-01-30T03:29:38;20.85;;;7.03;;
55254;SDS011;41118;44.634;11.182;2024-01-30T03:32:04;18.95;;;9.38;;
55254;SDS011;41118;44.634;11.182;2024-01-30T03:34:31;18.45;;;7.85;;
55254;SDS011;41118;44.634;11.182;2024-01-30T03:36:57;17.33;;;8.27;;
55254;SDS011;41118;44.634;11.182;2024-01-30T03:39:23;11.00;;;5.75;;
55254;SDS011;41118;44.634;11.182;2024-01-30T03:41:49;18.33;;;7.78;;
55254;SDS011;41118;44.634;11.182;2024-01-30T03:44:15;14.80;;;6.70;;
55254;SDS011;41118;44.634;11.182;2024-01-30T03:46:42;13.98;;;7.60;;
55254;SDS011;41118;44.634;11.182;2024-01-30T03:49:09;13.52;;;5.38;;
55254;SDS011;41118;44.634;11.182;2024-01-30T03:51:35;17.10;;;6.57;;
55254;SDS011;41118;44.634;11.182;2024-01-30T03:54:01;17.77;;;7.68;;
55254;SDS011;41118;44.634;11.182;2024-01-30T03:56:27;23.27;;;8.02;;
55254;SDS011;41118;44.634;11.182;2024-01-30T03:58:53;14.57;;;7.38;;
55254;SDS011;41118;44.634;11.182;2024-01-30T04:01:19;16.08;;;6.80;;
55254;SDS011;41118;44.634;11.182;2024-01-30T04:03:45;14.55;;;7.80;;
55254;SDS011;41118;44.634;11.182;2024-01-30T04:06:11;16.50;;;9.00;;
55254;SDS011;41118;44.634;11.182;2024-01-30T04:08:37;15.18;;;6.55;;
55254;SDS011;41118;44.634;11.182;2024-01-30T04:11:06;13.07;;;5.47;;
55254;SDS011;41118;44.634;11.182;2024-01-30T04:13:33;14.30;;;7.80;;
55254;SDS011;41118;44.634;11.182;2024-01-30T04:16:02;12.40;;;5.47;;
55254;SDS011;41118;44.634;11.182;2024-01-30T04:18:28;13.43;;;5.32;;
55254;SDS011;41118;44.634;11.182;2024-01-30T04:20:54;15.90;;;6.90;;
55254;SDS011;41118;44.634;11.182;2024-01-30T04:23:21;16.40;;;6.43;;
55254;SDS011;41118;44.634;11.182;2024-01-30T04:25:47;14.30;;;5.28;;
55254;SDS011;41118;44.634;11.182;2024-01-30T04:28:14;16.08;;;6.57;;
55254;SDS011;41118;44.634;11.182;2024-01-30T04:30:40;14.48;;;6.57;;
55254;SDS011;41118;44.634;11.182;2024-01-30T04:33:06;13.15;;;5.45;;
55254;SDS011;41118;44.634;11.182;2024-01-30T04:35:32;15.43;;;7.50;;
55254;SDS011;41118;44.634;11.182;2024-01-30T04:37:58;13.27;;;6.15;;
55254;SDS011;41118;44.634;11.182;2024-01-30T04:40:24;12.70;;;4.32;;
55254;SDS011;41118;44.634;11.182;2024-01-30T04:42:51;13.13;;;5.80;;
55254;SDS011;41118;44.634;11.182;2024-01-30T04:45:17;14.27;;;6.65;;
55254;SDS011;41118;44.634;11.182;2024-01-30T04:47:43;15.43;;;6.40;;
55254;SDS011;41118;44.634;11.182;2024-01-30T04:50:09;18.33;;;9.23;;
55254;SDS011;41118;44.634;11.182;2024-01-30T04:52:35;23.77;;;9.85;;
55254;SDS011;41118;44.634;11.182;2024-01-30T04:55:01;23.02;;;10.05;;
55254;SDS011;41118;44.634;11.182;2024-01-30T04:57:27;23.65;;;11.15;;
55254;SDS011;41118;44.634;11.182;2024-01-30T04:59:54;23.80;;;12.82;;
55254;SDS011;41118;44.634;11.182;2024-01-30T05:02:20;22.25;;;10.60;;
55254;SDS011;41118;44.634;11.182;2024-01-30T05:04:46;23.42;;;10.95;;
55254;SDS011;41118;44.634;11.182;2024-01-30T05:07:12;18.33;;;9.15;;
55254;SDS011;41118;44.634;11.182;2024-01-30T05:09:38;29.88;;;13.45;;
55254;SDS011;41118;44.634;11.182;2024-01-30T05:12:04;24.08;;;13.35;;
55254;SDS011;41118;44.634;11.182;2024-01-30T05:14:30;21.23;;;11.73;;
55254;SDS011;41118;44.634;11.182;2024-01-30T05:16:56;29.02;;;13.43;;
55254;SDS011;41118;44.634;11.182;2024-01-30T05:19:22;32.35;;;15.25;;
55254;SDS011;41118;44.634;11.182;2024-01-30T05:21:49;26.27;;;13.45;;
55254;SDS011;41118;44.634;11.182;2024-01-30T05:24:15;29.17;;;13.35;;
55254;SDS011;41118;44.634;11.182;2024-01-30T05:26:41;30.33;;;13.80;;
55254;SDS011;41118;44.634;11.182;2024-01-30T05:29:07;33.42;;;14.45;;
55254;SDS011;41118;44.634;11.182;2024-01-30T05:31:34;22.50;;;9.02;;
55254;SDS011;41118;44.634;11.182;2024-01-30T05:34:00;27.05;;;10.57;;
55254;SDS011;41118;44.634;11.182;2024-01-30T05:36:26;35.05;;;12.90;;
55254;SDS011;41118;44.634;11.182;2024-01-30T05:38:53;25.42;;;10.63;;
55254;SDS011;41118;44.634;11.182;2024-01-30T05:41:19;30.08;;;11.43;;
55254;SDS011;41118;44.634;11.182;2024-01-30T05:43:48;30.73;;;11.38;;
55254;SDS011;41118;44.634;11.182;2024-01-30T05:46:15;22.98;;;10.52;;
55254;SDS011;41118;44.634;11.182;2024-01-30T05:48:41;25.10;;;11.50;;
55254;SDS011;41118;44.634;11.182;2024-01-30T05:51:07;24.73;;;10.30;;
55254;SDS011;41118;44.634;11.182;2024-01-30T05:53:33;23.00;;;10.35;;
55254;SDS011;41118;44.634;11.182;2024-01-30T05:56:01;24.40;;;9.13;;
55254;SDS011;41118;44.634;11.182;2024-01-30T05:58:28;23.02;;;10.27;;
55254;SDS011;41118;44.634;11.182;2024-01-30T06:00:54;21.90;;;7.72;;
55254;SDS011;41118;44.634;11.182;2024-01-30T06:03:20;27.13;;;8.68;;
55254;SDS011;41118;44.634;11.182;2024-01-30T06:05:46;28.85;;;9.75;;
55254;SDS011;41118;44.634;11.182;2024-01-30T06:08:12;28.52;;;10.98;;
55254;SDS011;41118;44.634;11.182;2024-01-30T06:10:38;24.40;;;11.13;;
55254;SDS011;41118;44.634;11.182;2024-01-30T06:13:05;21.25;;;10.30;;
55254;SDS011;41118;44.634;11.182;2024-01-30T06:15:31;22.67;;;6.18;;
55254;SDS011;41118;44.634;11.182;2024-01-30T06:17:58;19.23;;;6.40;;
55254;SDS011;41118;44.634;11.182;2024-01-30T06:20:24;25.08;;;9.65;;
55254;SDS011;41118;44.634;11.182;2024-01-30T06:22:50;20.83;;;9.73;;
55254;SDS011;41118;44.634;11.182;2024-01-30T06:25:16;22.95;;;8.65;;
55254;SDS011;41118;44.634;11.182;2024-01-30T06:27:43;21.33;;;9.43;;
55254;SDS011;41118;44.634;11.182;2024-01-30T06:30:09;22.25;;;9.30;;
55254;SDS011;41118;44.634;11.182;2024-01-30T06:32:35;21.60;;;9.23;;
55254;SDS011;41118;44.634;11.182;2024-01-30T06:35:01;20.85;;;7.35;;
55254;SDS011;41118;44.634;11.182;2024-01-30T06:37:28;18.45;;;7.57;;
55254;SDS011;41118;44.634;11.182;2024-01-30T06:39:54;21.70;;;6.88;;
55254;SDS011;41118;44.634;11.182;2024-01-30T06:42:20;20.23;;;8.50;;
55254;SDS011;41118;44.634;11.182;2024-01-30T06:44:47;22.23;;;8.57;;
55254;SDS011;41118;44.634;11.182;2024-01-30T06:47:13;20.58;;;9.02;;
55254;SDS011;41118;44.634;11.182;2024-01-30T06:49:39;20.38;;;7.97;;
55254;SDS011;41118;44.634;11.182;2024-01-30T06:52:07;23.95;;;8.20;;
55254;SDS011;41118;44.634;11.182;2024-01-30T06:54:33;23.95;;;9.43;;
55254;SDS011;41118;44.634;11.182;2024-01-30T06:56:59;18.00;;;6.88;;
55254;SDS011;41118;44.634;11.182;2024-01-30T06:59:26;21.92;;;9.50;;
55254;SDS011;41118;44.634;11.182;2024-01-30T07:01:52;19.38;;;8.10;;
55254;SDS011;41118;44.634;11.182;2024-01-30T07:04:19;21.80;;;9.10;;
55254;SDS011;41118;44.634;11.182;2024-01-30T07:06:45;25.20;;;9.27;;
55254;SDS011;41118;44.634;11.182;2024-01-30T07:09:11;20.75;;;9.57;;
55254;SDS011;41118;44.634;11.182;2024-01-30T07:11:38;21.85;;;9.13;;
55254;SDS011;41118;44.634;11.182;2024-01-30T07:14:04;21.23;;;8.68;;
55254;SDS011;41118;44.634;11.182;2024-01-30T07:16:30;16.10;;;7.38;;
55254;SDS011;41118;44.634;11.182;2024-01-30T07:18:56;18.23;;;7.00;;
55254;SDS011;41118;44.634;11.182;2024-01-30T07:21:23;18.35;;;7.45;;
55254;SDS011;41118;44.634;11.182;2024-01-30T07:23:53;18.00;;;7.70;;
55254;SDS011;41118;44.634;11.182;2024-01-30T07:26:20;17.38;;;8.35;;
55254;SDS011;41118;44.634;11.182;2024-01-30T07:28:46;24.27;;;8.35;;
55254;SDS011;41118;44.634;11.182;2024-01-30T07:31:12;17.98;;;7.68;;
55254;SDS011;41118;44.634;11.182;2024-01-30T07:33:38;24.25;;;9.02;;
55254;SDS011;41118;44.634;11.182;2024-01-30T07:36:05;23.35;;;7.20;;
55254;SDS011;41118;44.634;11.182;2024-01-30T07:38:34;20.88;;;9.00;;
55254;SDS011;41118;44.634;11.182;2024-01-30T07:41:00;18.90;;;7.38;;
55254;SDS011;41118;44.634;11.182;2024-01-30T07:43:26;18.15;;;7.32;;
55254;SDS011;41118;44.634;11.182;2024-01-30T07:45:52;23.05;;;9.02;;
55254;SDS011;41118;44.634;11.182;2024-01-30T07:48:18;17.38;;;7.47;;
55254;SDS011;41118;44.634;11.182;2024-01-30T07:50:44;14.50;;;6.32;;
55254;SDS011;41118;44.634;11.182;2024-01-30T07:53:11;14.02;;;4.90;;
55254;SDS011;41118;44.634;11.182;2024-01-30T07:55:37;16.90;;;6.22;;
55254;SDS011;41118;44.634;11.182;2024-01-30T07:58:03;15.55;;;6.93;;
55254;SDS011;41118;44.634;11.182;2024-01-30T08:00:31;14.45;;;6.97;;
55254;SDS011;41118;44.634;11.182;2024-01-30T08:02:57;19.70;;;9.48;;
55254;SDS011;41118;44.634;11.182;2024-01-30T08:05:23;14.02;;;6.15;;
55254;SDS011;41118;44.634;11.182;2024-01-30T08:07:49;11.10;;;5.25;;
55254;SDS011;41118;44.634;11.182;2024-01-30T08:10:15;19.83;;;6.28;;
55254;SDS011;41118;44.634;11.182;2024-01-30T08:12:43;17.85;;;6.70;;
55254;SDS011;41118;44.634;11.182;2024-01-30T08:15:10;19.10;;;8.13;;
55254;SDS011;41118;44.634;11.182;2024-01-30T08:17:37;14.80;;;6.95;;
55254;SDS011;41118;44.634;11.182;2024-01-30T08:20:03;18.17;;;7.57;;
55254;SDS011;41118;44.634;11.182;2024-01-30T08:22:29;14.25;;;6.15;;
55254;SDS011;41118;44.634;11.182;2024-01-30T08:24:55;16.95;;;6.95;;
55254;SDS011;41118;44.634;11.182;2024-01-30T08:27:22;19.52;;;7.18;;
55254;SDS011;41118;44.634;11.182;2024-01-30T08:29:48;18.52;;;7.68;;
55254;SDS011;41118;44.634;11.182;2024-01-30T08:32:15;18.02;;;6.13;;
55254;SDS011;41118;44.634;11.182;2024-01-30T08:34:41;17.52;;;7.30;;
55254;SDS011;41118;44.634;11.182;2024-01-30T08:37:07;17.48;;;7.18;;
55254;SDS011;41118;44.634;11.182;2024-01-30T08:39:33;16.67;;;7.22;;
55254;SDS011;41118;44.634;11.182;2024-01-30T08:42:00;14.40;;;5.32;;
55254;SDS011;41118;44.634;11.182;2024-01-30T08:44:26;15.27;;;6.40;;
55254;SDS011;41118;44.634;11.182;2024-01-30T08:46:52;15.77;;;7.85;;
55254;SDS011;41118;44.634;11.182;2024-01-30T08:49:19;19.30;;;8.45;;
55254;SDS011;41118;44.634;11.182;2024-01-30T08:51:46;17.45;;;8.13;;
55254;SDS011;41118;44.634;11.182;2024-01-30T08:54:12;20.95;;;7.63;;
55254;SDS011;41118;44.634;11.182;2024-01-30T08:56:38;18.73;;;7.28;;
55254;SDS011;41118;44.634;11.182;2024-01-30T08:59:05;17.80;;;6.47;;
55254;SDS011;41118;44.634;11.182;2024-01-30T09:01:31;18.08;;;8.13;;
55254;SDS011;41118;44.634;11.182;2024-01-30T09:03:57;23.80;;;8.02;;
55254;SDS011;41118;44.634;11.182;2024-01-30T09:06:23;12.52;;;4.32;;
55254;SDS011;41118;44.634;11.182;2024-01-30T09:08:52;19.70;;;8.13;;
55254;SDS011;41118;44.634;11.182;2024-01-30T09:11:19;19.88;;;7.15;;
55254;SDS011;41118;44.634;11.182;2024-01-30T09:13:45;19.85;;;8.25;;
55254;SDS011;41118;44.634;11.182;2024-01-30T09:16:11;19.85;;;7.13;;
55254;SDS011;41118;44.634;11.182;2024-01-30T09:18:38;20.85;;;8.20;;
55254;SDS011;41118;44.634;11.182;2024-01-30T09:21:04;19.80;;;7.88;;
55254;SDS011;41118;44.634;11.182;2024-01-30T09:23:30;15.82;;;5.63;;
55254;SDS011;41118;44.634;11.182;2024-01-30T09:25:56;24.60;;;9.55;;
55254;SDS011;41118;44.634;11.182;2024-01-30T09:28:22;21.33;;;9.02;;
55254;SDS011;41118;44.634;11.182;2024-01-30T09:30:48;24.75;;;9.48;;
55254;SDS011;41118;44.634;11.182;2024-01-30T09:33:14;23.08;;;7.93;;
55254;SDS011;41118;44.634;11.182;2024-01-30T09:35:41;21.27;;;7.93;;
55254;SDS011;41118;44.634;11.182;2024-01-30T09:38:07;15.68;;;6.70;;
55254;SDS011;41118;44.634;11.182;2024-01-30T09:40:33;20.45;;;7.82;;
55254;SDS011;41118;44.634;11.182;2024-01-30T09:42:59;21.27;;;7.43;;
55254;SDS011;41118;44.634;11.182;2024-01-30T09:45:26;19.20;;;7.55;;
55254;SDS011;41118;44.634;11.182;2024-01-30T09:47:52;16.45;;;7.55;;
55254;SDS011;41118;44.634;11.182;2024-01-30T09:50:18;24.05;;;5.63;;
55254;SDS011;41118;44.634;11.182;2024-01-30T09:52:45;22.63;;;6.68;;
55254;SDS011;41118;44.634;11.182;2024-01-30T09:55:11;18.92;;;8.23;;
55254;SDS011;41118;44.634;11.182;2024-01-30T09:57:38;18.80;;;7.85;;
55254;SDS011;41118;44.634;11.182;2024-01-30T10:00:05;18.65;;;8.23;;
55254;SDS011;41118;44.634;11.182;2024-01-30T10:02:34;18.85;;;6.97;;
55254;SDS011;41118;44.634;11.182;2024-01-30T10:05:01;15.98;;;5.88;;
55254;SDS011;41118;44.634;11.182;2024-01-30T10:07:33;18.30;;;6.88;;
55254;SDS011;41118;44.634;11.182;2024-01-30T10:10:00;16.00;;;6.85;;
55254;SDS011;41118;44.634;11.182;2024-01-30T10:12:26;23.17;;;8.73;;
55254;SDS011;41118;44.634;11.182;2024-01-30T10:14:52;17.17;;;8.65;;
55254;SDS011;41118;44.634;11.182;2024-01-30T10:17:19;16.35;;;7.00;;
55254;SDS011;41118;44.634;11.182;2024-01-30T10:19:46;22.65;;;6.45;;
55254;SDS011;41118;44.634;11.182;2024-01-30T10:22:12;22.73;;;6.78;;
55254;SDS011;41118;44.634;11.182;2024-01-30T10:24:38;14.40;;;5.47;;
55254;SDS011;41118;44.634;11.182;2024-01-30T10:27:05;22.23;;;7.35;;
55254;SDS011;41118;44.634;11.182;2024-01-30T10:29:31;18.33;;;4.70;;
55254;SDS011;41118;44.634;11.182;2024-01-30T10:31:58;25.77;;;7.72;;
55254;SDS011;41118;44.634;11.182;2024-01-30T10:34:25;20.50;;;7.65;;
55254;SDS011;41118;44.634;11.182;2024-01-30T10:36:51;15.70;;;5.78;;
55254;SDS011;41118;44.634;11.182;2024-01-30T10:39:22;18.63;;;6.55;;
55254;SDS011;41118;44.634;11.182;2024-01-30T10:41:48;15.30;;;5.65;;
55254;SDS011;41118;44.634;11.182;2024-01-30T10:44:19;19.17;;;9.35;;
55254;SDS011;41118;44.634;11.182;2024-01-30T10:46:46;22.88;;;8.07;;
55254;SDS011;41118;44.634;11.182;2024-01-30T10:49:15;15.07;;;6.18;;
55254;SDS011;41118;44.634;11.182;2024-01-30T10:51:42;12.93;;;6.50;;
55254;SDS011;41118;44.634;11.182;2024-01-30T10:54:09;20.70;;;7.82;;
55254;SDS011;41118;44.634;11.182;2024-01-30T10:56:36;14.48;;;5.40;;
55254;SDS011;41118;44.634;11.182;2024-01-30T10:59:03;15.75;;;6.15;;
55254;SDS011;41118;44.634;11.182;2024-01-30T11:01:30;12.35;;;4.60;;
55254;SDS011;41118;44.634;11.182;2024-01-30T11:03:56;16.38;;;7.80;;
55254;SDS011;41118;44.634;11.182;2024-01-30T11:06:22;18.13;;;6.95;;
55254;SDS011;41118;44.634;11.182;2024-01-30T11:09:02;24.02;;;7.72;;
55254;SDS011;41118;44.634;11.182;2024-01-30T11:11:29;14.65;;;5.20;;
55254;SDS011;41118;44.634;11.182;2024-01-30T11:13:55;17.17;;;6.20;;
55254;SDS011;41118;44.634;11.182;2024-01-30T11:16:21;12.57;;;3.83;;
55254;SDS011;41118;44.634;11.182;2024-01-30T11:18:50;13.38;;;3.78;;
55254;SDS011;41118;44.634;11.182;2024-01-30T11:21:16;9.82;;;2.92;;
55254;SDS011;41118;44.634;11.182;2024-01-30T11:23:42;13.23;;;3.80;;
55254;SDS011;41118;44.634;11.182;2024-01-30T11:26:12;10.80;;;3.65;;
55254;SDS011;41118;44.634;11.182;2024-01-30T11:28:38;16.02;;;4.55;;
55254;SDS011;41118;44.634;11.182;2024-01-30T11:31:05;8.35;;;2.55;;
55254;SDS011;41118;44.634;11.182;2024-01-30T11:33:32;14.23;;;4.28;;
55254;SDS011;41118;44.634;11.182;2024-01-30T11:35:59;18.17;;;6.20;;
55254;SDS011;41118;44.634;11.182;2024-01-30T11:38:26;9.70;;;2.53;;
55254;SDS011;41118;44.634;11.182;2024-01-30T11:40:55;7.95;;;3.58;;
55254;SDS011;41118;44.634;11.182;2024-01-30T11:43:24;12.82;;;4.53;;
55254;SDS011;41118;44.634;11.182;2024-01-30T11:45:50;11.02;;;4.57;;
55254;SDS011;41118;44.634;11.182;2024-01-30T11:48:17;18.05;;;6.65;;
55254;SDS011;41118;44.634;11.182;2024-01-30T11:50:43;14.73;;;4.50;;
55254;SDS011;41118;44.634;11.182;2024-01-30T11:53:10;13.73;;;4.43;;
55254;SDS011;41118;44.634;11.182;2024-01-30T11:55:36;13.30;;;4.40;;
55254;SDS011;41118;44.634;11.182;2024-01-30T11:58:02;15.55;;;5.60;;
55254;SDS011;41118;44.634;11.182;2024-01-30T12:00:29;12.77;;;5.25;;
55254;SDS011;41118;44.634;11.182;2024-01-30T12:02:58;17.38;;;5.60;;
55254;SDS011;41118;44.634;11.182;2024-01-30T12:05:25;12.15;;;5.07;;
55254;SDS011;41118;44.634;11.182;2024-01-30T12:07:52;15.50;;;4.40;;
55254;SDS011;41118;44.634;11.182;2024-01-30T12:10:18;9.50;;;2.72;;
55254;SDS011;41118;44.634;11.182;2024-01-30T12:12:54;14.80;;;4.10;;
55254;SDS011;41118;44.634;11.182;2024-01-30T12:15:21;14.20;;;4.53;;
55254;SDS011;41118;44.634;11.182;2024-01-30T12:17:47;16.67;;;6.22;;
55254;SDS011;41118;44.634;11.182;2024-01-30T12:20:15;20.15;;;7.85;;
55254;SDS011;41118;44.634;11.182;2024-01-30T12:22:44;19.38;;;8.65;;
55254;SDS011;41118;44.634;11.182;2024-01-30T12:25:10;19.48;;;9.02;;
55254;SDS011;41118;44.634;11.182;2024-01-30T12:27:37;12.43;;;5.13;;
55254;SDS011;41118;44.634;11.182;2024-01-30T12:30:06;11.25;;;3.83;;
55254;SDS011;41118;44.634;11.182;2024-01-30T12:32:36;13.25;;;5.00;;
55254;SDS011;41118;44.634;11.182;2024-01-30T12:35:02;9.88;;;3.13;;
55254;SDS011;41118;44.634;11.182;2024-01-30T12:37:29;14.18;;;5.45;;
55254;SDS011;41118;44.634;11.182;2024-01-30T12:39:55;11.18;;;5.10;;
55254;SDS011;41118;44.634;11.182;2024-01-30T12:42:21;15.15;;;6.40;;
55254;SDS011;41118;44.634;11.182;2024-01-30T12:44:48;16.15;;;7.25;;
55254;SDS011;41118;44.634;11.182;2024-01-30T12:47:14;13.63;;;4.25;;
55254;SDS011;41118;44.634;11.182;2024-01-30T12:49:44;13.85;;;5.43;;
55254;SDS011;41118;44.634;11.182;2024-01-30T12:52:13;19.45;;;6.53;;
55254;SDS011;41118;44.634;11.182;2024-01-30T12:54:40;18.20;;;7.25;;
55254;SDS011;41118;44.634;11.182;2024-01-30T12:57:06;18.92;;;6.78;;
55254;SDS011;41118;44.634;11.182;2024-01-30T12:59:32;20.15;;;8.38;;
55254;SDS011;41118;44.634;11.182;2024-01-30T13:01:59;16.85;;;8.15;;
55254;SDS011;41118;44.634;11.182;2024-01-30T13:04:25;15.23;;;6.50;;
55254;SDS011;41118;44.634;11.182;2024-01-30T13:06:51;12.23;;;6.55;;
55254;SDS011;41118;44.634;11.182;2024-01-30T13:09:18;18.10;;;5.57;;
55254;SDS011;41118;44.634;11.182;2024-01-30T13:11:44;19.70;;;7.00;;
55254;SDS011;41118;44.634;11.182;2024-01-30T13:14:10;18.63;;;7.72;;
55254;SDS011;41118;44.634;11.182;2024-01-30T13:16:36;12.25;;;6.47;;
55254;SDS011;41118;44.634;11.182;2024-01-30T13:19:02;17.15;;;6.63;;
55254;SDS011;41118;44.634;11.182;2024-01-30T13:21:29;15.52;;;7.38;;
55254;SDS011;41118;44.634;11.182;2024-01-30T13:23:55;21.83;;;7.88;;
55254;SDS011;41118;44.634;11.182;2024-01-30T13:26:21;16.95;;;7.30;;
55254;SDS011;41118;44.634;11.182;2024-01-30T13:28:47;17.00;;;6.57;;
55254;SDS011;41118;44.634;11.182;2024-01-30T13:31:16;14.95;;;5.88;;
55254;SDS011;41118;44.634;11.182;2024-01-30T13:33:43;22.30;;;6.95;;
55254;SDS011;41118;44.634;11.182;2024-01-30T13:36:10;16.73;;;7.30;;
55254;SDS011;41118;44.634;11.182;2024-01-30T13:38:37;18.48;;;7.47;;
55254;SDS011;41118;44.634;11.182;2024-01-30T13:41:04;17.88;;;8.23;;
55254;SDS011;41118;44.634;11.182;2024-01-30T13:43:30;16.42;;;7.85;;
55254;SDS011;41118;44.634;11.182;2024-01-30T13:45:56;22.08;;;7.35;;
55254;SDS011;41118;44.634;11.182;2024-01-30T13:48:23;16.38;;;5.15;;
55254;SDS011;41118;44.634;11.182;2024-01-30T13:50:49;13.65;;;6.32;;
55254;SDS011;41118;44.634;11.182;2024-01-30T13:53:15;18.05;;;8.45;;
55254;SDS011;41118;44.634;11.182;2024-01-30T13:55:42;19.70;;;9.10;;
55254;SDS011;41118;44.634;11.182;2024-01-30T13:58:08;19.60;;;8.23;;
55254;SDS011;41118;44.634;11.182;2024-01-30T14:00:34;18.55;;;8.10;;
55254;SDS011;41118;44.634;11.182;2024-01-30T14:03:01;20.02;;;8.48;;
55254;SDS011;41118;44.634;11.182;2024-01-30T14:05:28;22.13;;;6.90;;
55254;SDS011;41118;44.634;11.182;2024-01-30T14:07:54;19.27;;;6.90;;
55254;SDS011;41118;44.634;11.182;2024-01-30T14:10:20;17.90;;;7.30;;
55254;SDS011;41118;44.634;11.182;2024-01-30T14:12:47;27.25;;;9.27;;
55254;SDS011;41118;44.634;11.182;2024-01-30T14:15:13;19.20;;;8.55;;
55254;SDS011;41118;44.634;11.182;2024-01-30T14:17:40;18.23;;;6.70;;